createdAt,value
2023-02-24T00:02:06.089Z,-0.20
2023-02-24T00:04:39.756Z,-0.10
2023-02-24T00:07:12.801Z,-0.10
2023-02-24T00:09:40.957Z,-0.10
2023-02-24T00:12:13.365Z,-0.10
2023-02-24T00:14:42.803Z,-0.10
2023-02-24T00:17:12.310Z,-0.10
2023-02-24T00:19:39.268Z,-0.10
2023-02-24T00:22:08.433Z,-0.10
2023-02-24T00:24:36.288Z,-0.10
2023-02-24T00:27:08.338Z,-0.20
2023-02-24T00:29:37.811Z,-0.10
2023-02-24T00:32:08.333Z,-0.10
2023-02-24T00:34:37.718Z,-0.10
2023-02-24T00:37:07.113Z,-0.20
2023-02-24T00:39:35.415Z,-0.10
2023-02-24T00:42:06.846Z,-0.10
2023-02-24T00:44:35.070Z,-0.10
2023-02-24T00:47:02.762Z,-0.10
2023-02-24T00:49:29.921Z,0.00
2023-02-24T00:51:57.080Z,-0.10
2023-02-24T00:54:27.496Z,0.00
2023-02-24T00:56:55.495Z,0.00
2023-02-24T00:59:24.197Z,0.00
2023-02-24T01:01:51.711Z,0.00
2023-02-24T01:04:20.164Z,0.00
2023-02-24T01:06:50.310Z,0.00
2023-02-24T01:09:20.722Z,0.00
2023-02-24T01:12:01.914Z,0.10
2023-02-24T01:14:31.612Z,0.10
2023-02-24T01:16:58.769Z,0.10
2023-02-24T01:19:31.705Z,0.10
2023-02-24T01:22:01.231Z,0.10
2023-02-24T01:24:54.234Z,0.10
2023-02-24T01:27:21.122Z,0.20
2023-02-24T01:29:48.831Z,0.20
2023-02-24T01:32:19.479Z,0.20
2023-02-24T01:34:46.765Z,0.20
2023-02-24T01:37:16.629Z,0.20
2023-02-24T01:39:47.059Z,0.20
2023-02-24T01:42:21.153Z,0.20
2023-02-24T01:44:48.178Z,0.30
2023-02-24T01:47:22.972Z,0.30
2023-02-24T01:49:54.054Z,0.20
2023-02-24T01:52:23.715Z,0.20
2023-02-24T01:55:04.043Z,0.30
2023-02-24T01:57:34.990Z,0.30
2023-02-24T02:00:19.650Z,0.30
2023-02-24T02:02:52.524Z,0.30
2023-02-24T02:05:19.518Z,0.30
2023-02-24T02:07:46.538Z,0.30
2023-02-24T02:10:14.258Z,0.30
2023-02-24T02:12:44.600Z,0.30
2023-02-24T02:15:20.391Z,0.30
2023-02-24T02:18:02.840Z,0.40
2023-02-24T02:21:05.224Z,0.40
2023-02-24T02:23:57.996Z,0.40
2023-02-24T02:26:32.606Z,0.40
2023-02-24T02:29:18.095Z,0.50
2023-02-24T02:32:05.585Z,0.50
2023-02-24T02:35:03.734Z,0.40
2023-02-24T02:37:33.288Z,0.40
2023-02-24T02:40:23.392Z,0.40
2023-02-24T02:43:14.322Z,0.40
2023-02-24T02:45:51.615Z,0.50
2023-02-24T02:48:31.263Z,0.50
2023-02-24T02:51:06.995Z,0.50
2023-02-24T02:53:57.211Z,0.50
2023-02-24T02:56:36.637Z,0.50
2023-02-24T02:59:05.508Z,0.50
2023-02-24T03:01:37.765Z,0.60
2023-02-24T03:04:07.451Z,0.50
2023-02-24T03:06:36.830Z,0.50
2023-02-24T03:09:16.066Z,0.50
2023-02-24T03:11:55.921Z,0.60
2023-02-24T03:14:28.347Z,0.60
2023-02-24T03:16:57.727Z,0.50
2023-02-24T03:19:33.449Z,0.60
2023-02-24T03:22:22.062Z,0.60
2023-02-24T03:24:49.057Z,0.60
2023-02-24T03:27:27.583Z,0.60
2023-02-24T03:30:13.124Z,0.60
2023-02-24T03:32:57.772Z,0.70
2023-02-24T03:35:29.283Z,0.60
2023-02-24T03:37:59.452Z,0.70
2023-02-24T03:40:36.208Z,0.70
2023-02-24T03:43:26.308Z,0.70
2023-02-24T03:45:54.740Z,0.70
2023-02-24T03:48:22.657Z,0.70
2023-02-24T03:50:49.770Z,0.70
2023-02-24T03:53:30.924Z,0.80
2023-02-24T03:56:00.883Z,0.70
2023-02-24T03:58:43.135Z,0.70
2023-02-24T04:01:16.191Z,0.80
2023-02-24T04:04:13.535Z,0.80
2023-02-24T04:06:41.848Z,0.70
2023-02-24T04:09:33.387Z,0.80
2023-02-24T04:12:09.488Z,0.80
2023-02-24T04:14:45.491Z,0.70
2023-02-24T04:17:26.872Z,0.80
2023-02-24T04:19:58.182Z,0.80
2023-02-24T04:22:27.201Z,0.80
2023-02-24T04:24:59.814Z,0.80
2023-02-24T04:27:28.495Z,0.80
2023-02-24T04:30:00.182Z,0.80
2023-02-24T04:32:29.795Z,0.80
2023-02-24T04:35:09.593Z,0.80
2023-02-24T04:37:40.200Z,0.80
2023-02-24T04:40:13.336Z,0.80
2023-02-24T04:42:49.323Z,0.80
2023-02-24T04:45:27.981Z,0.80
2023-02-24T04:48:01.056Z,0.90
2023-02-24T04:50:30.850Z,0.90
2023-02-24T04:53:07.296Z,0.80
2023-02-24T04:55:42.538Z,0.90
2023-02-24T04:58:19.335Z,0.90
2023-02-24T05:00:49.130Z,0.90
2023-02-24T05:03:17.377Z,0.90
2023-02-24T05:05:52.244Z,0.90
2023-02-24T05:08:20.018Z,0.90
2023-02-24T05:10:47.421Z,0.90
2023-02-24T05:13:17.324Z,0.90
2023-02-24T05:15:46.018Z,0.90
2023-02-24T05:18:17.203Z,0.90
2023-02-24T05:21:06.687Z,0.90
2023-02-24T05:23:44.545Z,1.00
2023-02-24T05:26:17.308Z,1.00
2023-02-24T05:28:49.374Z,1.10
2023-02-24T05:31:20.327Z,1.00
2023-02-24T05:33:54.641Z,1.00
2023-02-24T05:36:22.494Z,1.00
2023-02-24T05:38:56.572Z,1.00
2023-02-24T05:41:32.688Z,1.00
2023-02-24T05:44:02.599Z,1.10
2023-02-24T05:46:32.779Z,0.90
2023-02-24T05:49:09.063Z,1.10
2023-02-24T05:51:43.490Z,1.10
2023-02-24T05:54:13.312Z,1.20
2023-02-24T05:56:44.560Z,1.10
2023-02-24T05:59:12.884Z,1.20
2023-02-24T06:01:41.787Z,1.20
2023-02-24T06:04:09.948Z,1.20
2023-02-24T06:06:40.749Z,1.20
2023-02-24T06:09:11.111Z,1.20
2023-02-24T06:11:40.752Z,1.30
2023-02-24T06:14:09.259Z,1.30
2023-02-24T06:16:40.073Z,1.30
2023-02-24T06:19:08.328Z,1.30
2023-02-24T06:21:41.461Z,1.30
2023-02-24T06:24:18.668Z,1.40
2023-02-24T06:26:46.681Z,1.30
2023-02-24T06:29:18.347Z,1.30
2023-02-24T06:31:45.776Z,1.40
2023-02-24T06:34:18.444Z,1.40
2023-02-24T06:36:47.066Z,1.40
2023-02-24T06:39:14.689Z,1.40
2023-02-24T06:41:42.842Z,1.50
2023-02-24T06:44:09.853Z,1.50
2023-02-24T06:46:37.239Z,1.50
2023-02-24T06:49:04.611Z,1.50
2023-02-24T06:51:32.011Z,1.50
2023-02-24T06:53:59.781Z,1.60
2023-02-24T06:56:27.694Z,1.60
2023-02-24T06:58:56.937Z,1.50
2023-02-24T07:01:26.522Z,1.60
2023-02-24T07:04:08.047Z,1.60
2023-02-24T07:06:38.421Z,1.60
2023-02-24T07:09:09.172Z,1.70
2023-02-24T07:11:37.210Z,1.70
2023-02-24T07:14:07.911Z,1.70
2023-02-24T07:16:36.371Z,1.70
2023-02-24T07:19:13.864Z,1.70
2023-02-24T07:22:00.076Z,1.70
2023-02-24T07:24:33.687Z,1.70
2023-02-24T07:27:04.661Z,1.70
2023-02-24T07:29:32.480Z,1.80
2023-02-24T07:32:03.567Z,1.80
2023-02-24T07:34:32.080Z,1.80
2023-02-24T07:36:59.227Z,1.70
2023-02-24T07:39:26.385Z,1.80
2023-02-24T07:41:57.254Z,1.80
2023-02-24T07:44:24.597Z,1.80
2023-02-24T07:46:52.398Z,1.80
2023-02-24T07:49:26.119Z,1.80
2023-02-24T07:51:57.751Z,1.80
2023-02-24T07:54:27.859Z,1.80
2023-02-24T07:56:59.242Z,1.80
2023-02-24T07:59:29.468Z,1.80
2023-02-24T08:01:57.208Z,1.90
2023-02-24T08:04:30.164Z,1.90
2023-02-24T08:06:59.093Z,1.90
2023-02-24T08:09:46.863Z,1.90
2023-02-24T08:12:21.589Z,1.90
2023-02-24T08:14:52.100Z,2.00
2023-02-24T08:17:21.214Z,2.00
2023-02-24T08:19:49.828Z,2.00
2023-02-24T08:22:20.394Z,2.00
2023-02-24T08:25:00.776Z,2.00
2023-02-24T08:27:32.346Z,2.00
2023-02-24T08:30:03.587Z,2.00
2023-02-24T08:32:37.834Z,2.10
2023-02-24T08:35:15.355Z,2.10
2023-02-24T08:37:49.127Z,2.10
2023-02-24T08:40:34.365Z,2.10
2023-02-24T08:43:17.045Z,2.10
2023-02-24T08:45:56.726Z,2.20
2023-02-24T08:48:31.144Z,2.20
2023-02-24T08:51:01.053Z,2.30
2023-02-24T08:53:34.108Z,2.10
2023-02-24T08:56:09.772Z,2.20
2023-02-24T08:58:48.996Z,2.20
2023-02-24T09:01:20.895Z,2.20
2023-02-24T09:03:50.517Z,2.10
2023-02-24T09:06:25.487Z,2.20
2023-02-24T09:09:15.761Z,2.20
2023-02-24T09:11:44.873Z,2.20
2023-02-24T09:14:32.224Z,2.30
2023-02-24T09:17:02.630Z,2.40
2023-02-24T09:19:46.360Z,2.50
2023-02-24T09:22:21.105Z,2.60
2023-02-24T09:24:51.226Z,2.70
2023-02-24T09:27:18.194Z,2.70
2023-02-24T09:29:50.921Z,2.70
2023-02-24T09:32:18.033Z,2.70
2023-02-24T09:34:44.998Z,2.70
2023-02-24T09:37:25.712Z,2.80
2023-02-24T09:39:56.373Z,2.70
2023-02-24T09:42:29.241Z,2.70
2023-02-24T09:45:11.583Z,2.80
2023-02-24T09:47:54.983Z,2.90
2023-02-24T09:51:02.558Z,2.90
2023-02-24T09:53:41.588Z,2.80
2023-02-24T09:56:16.196Z,2.80
2023-02-24T09:58:53.249Z,2.60
2023-02-24T10:01:31.105Z,2.60
2023-02-24T10:04:21.184Z,2.70
2023-02-24T10:07:05.350Z,2.80
2023-02-24T10:09:52.463Z,2.70
2023-02-24T10:12:34.117Z,2.60
2023-02-24T10:15:20.860Z,2.50
2023-02-24T10:17:55.590Z,2.60
2023-02-24T10:20:45.843Z,2.60
2023-02-24T10:23:33.077Z,2.60
2023-02-24T10:26:07.732Z,2.60
2023-02-24T10:28:52.169Z,2.60
2023-02-24T10:31:46.153Z,2.60
2023-02-24T10:34:25.337Z,2.70
2023-02-24T10:36:52.936Z,2.70
2023-02-24T10:39:26.103Z,2.70
2023-02-24T10:41:59.326Z,2.60
2023-02-24T10:44:36.348Z,2.70
2023-02-24T10:47:14.143Z,2.80
2023-02-24T10:49:57.263Z,2.70
2023-02-24T10:53:11.349Z,2.70
2023-02-24T10:55:45.303Z,2.60
2023-02-24T10:59:06.749Z,2.60
2023-02-24T11:02:02.735Z,2.70
2023-02-24T11:05:04.526Z,2.70
2023-02-24T11:07:53.723Z,2.70
2023-02-24T11:10:26.487Z,2.60
2023-02-24T11:13:13.799Z,2.60
2023-02-24T11:16:01.889Z,2.60
2023-02-24T11:18:30.819Z,2.60
2023-02-24T11:21:12.345Z,2.60
2023-02-24T11:23:45.853Z,2.50
2023-02-24T11:26:27.424Z,2.50
2023-02-24T11:29:07.191Z,2.60
2023-02-24T11:31:52.230Z,2.60
2023-02-24T11:34:30.937Z,2.60
2023-02-24T11:37:20.538Z,2.50
2023-02-24T11:39:55.370Z,2.60
2023-02-24T11:42:31.338Z,2.50
2023-02-24T11:45:24.060Z,2.50
2023-02-24T11:48:16.082Z,2.50
2023-02-24T11:50:51.937Z,2.60
2023-02-24T11:53:46.856Z,2.50
2023-02-24T11:56:21.774Z,2.60
2023-02-24T11:59:07.174Z,2.50
2023-02-24T12:01:47.361Z,2.50
2023-02-24T12:04:23.642Z,2.50
2023-02-24T12:07:20.902Z,2.50
2023-02-24T12:10:10.648Z,2.50
2023-02-24T12:13:03.133Z,2.50
2023-02-24T12:15:35.379Z,2.50
2023-02-24T12:18:07.160Z,2.60
2023-02-24T12:20:47.047Z,2.60
2023-02-24T12:23:33.121Z,2.60
2023-02-24T12:26:20.801Z,2.70
2023-02-24T12:28:53.536Z,2.60
2023-02-24T12:31:41.836Z,2.70
2023-02-24T12:34:36.133Z,2.70
2023-02-24T12:37:30.496Z,2.80
2023-02-24T12:40:16.107Z,2.70
2023-02-24T12:42:50.915Z,2.70
2023-02-24T12:45:26.713Z,2.70
2023-02-24T12:48:05.627Z,2.70
2023-02-24T12:50:47.344Z,2.70
2023-02-24T12:53:52.696Z,2.60
2023-02-24T12:56:27.955Z,2.60
2023-02-24T12:59:00.719Z,2.70
2023-02-24T13:01:56.410Z,2.80
2023-02-24T13:04:48.802Z,2.80
2023-02-24T13:07:35.829Z,2.70
2023-02-24T13:10:11.427Z,2.70
2023-02-24T13:12:57.369Z,2.70
2023-02-24T13:15:27.402Z,2.70
2023-02-24T13:17:58.008Z,2.80
2023-02-24T13:20:37.296Z,2.70
2023-02-24T13:23:21.176Z,2.80
2023-02-24T13:25:53.689Z,2.90
2023-02-24T13:28:33.242Z,2.80
2023-02-24T13:31:05.142Z,2.90
2023-02-24T13:33:40.835Z,2.80
2023-02-24T13:36:22.507Z,2.80
2023-02-24T13:39:05.877Z,2.80
2023-02-24T13:41:32.780Z,2.80
2023-02-24T13:44:20.340Z,2.80
2023-02-24T13:46:53.377Z,2.80
2023-02-24T13:49:59.429Z,2.80
2023-02-24T13:52:38.484Z,2.70
2023-02-24T13:55:34.376Z,2.60
2023-02-24T13:58:38.170Z,2.60
2023-02-24T14:01:14.486Z,2.50
2023-02-24T14:03:44.045Z,2.50
2023-02-24T14:06:23.143Z,2.40
2023-02-24T14:08:56.215Z,2.50
2023-02-24T14:11:28.524Z,2.40
2023-02-24T14:13:57.533Z,2.40
2023-02-24T14:16:29.230Z,2.40
2023-02-24T14:18:59.479Z,2.40
2023-02-24T14:21:28.937Z,2.40
2023-02-24T14:24:00.839Z,2.40
2023-02-24T14:26:30.413Z,2.40
2023-02-24T14:29:03.518Z,2.50
2023-02-24T14:31:31.321Z,2.50
2023-02-24T14:34:01.665Z,2.50
2023-02-24T14:36:33.325Z,2.50
2023-02-24T14:39:19.864Z,2.50
2023-02-24T14:41:47.947Z,2.60
2023-02-24T14:44:41.963Z,2.50
2023-02-24T14:47:12.040Z,2.60
2023-02-24T14:49:38.894Z,2.50
2023-02-24T14:52:23.849Z,2.50
2023-02-24T14:54:57.145Z,2.50
2023-02-24T14:57:31.998Z,2.50
2023-02-24T15:00:12.917Z,2.40
2023-02-24T15:02:46.683Z,2.50
2023-02-24T15:05:13.740Z,2.50
2023-02-24T15:07:45.393Z,2.40
2023-02-24T15:10:26.659Z,2.40
2023-02-24T15:13:10.752Z,2.40
2023-02-24T15:15:42.879Z,2.40
2023-02-24T15:18:27.182Z,2.40
2023-02-24T15:21:05.977Z,2.30
2023-02-24T15:23:35.801Z,2.30
2023-02-24T15:26:04.549Z,2.40
2023-02-24T15:28:37.399Z,2.30
2023-02-24T15:31:19.905Z,2.30
2023-02-24T15:33:59.995Z,2.30
2023-02-24T15:36:36.665Z,2.30
2023-02-24T15:39:07.037Z,2.30
2023-02-24T15:41:45.148Z,2.30
2023-02-24T15:44:32.838Z,2.30
2023-02-24T15:47:12.005Z,2.30
2023-02-24T15:49:40.381Z,2.30
2023-02-24T15:52:10.849Z,2.40
2023-02-24T15:54:42.489Z,2.30
2023-02-24T15:57:16.647Z,2.30
2023-02-24T15:59:44.564Z,2.30
2023-02-24T16:02:20.000Z,2.40
2023-02-24T16:04:48.312Z,2.30
2023-02-24T16:07:21.090Z,2.30
2023-02-24T16:09:50.964Z,2.40
2023-02-24T16:12:22.855Z,2.40
2023-02-24T16:14:55.912Z,2.40
2023-02-24T16:17:29.359Z,2.40
2023-02-24T16:19:57.012Z,2.40
2023-02-24T16:22:24.680Z,2.40
2023-02-24T16:24:51.885Z,2.40
2023-02-24T16:27:23.209Z,2.40
2023-02-24T16:29:51.234Z,2.40
2023-02-24T16:32:22.294Z,2.40
2023-02-24T16:34:53.156Z,2.40
2023-02-24T16:37:22.861Z,2.40
2023-02-24T16:39:50.198Z,2.40
2023-02-24T16:42:18.283Z,2.50
2023-02-24T16:44:48.888Z,2.40
2023-02-24T16:47:22.422Z,2.40
2023-02-24T16:49:49.698Z,2.40
2023-02-24T16:52:20.760Z,2.40
2023-02-24T16:54:48.384Z,2.40
2023-02-24T16:57:15.455Z,2.40
2023-02-24T16:59:42.471Z,2.40
2023-02-24T17:02:27.814Z,2.50
2023-02-24T17:04:55.306Z,2.50
2023-02-24T17:07:22.435Z,2.40
2023-02-24T17:09:49.358Z,2.50
2023-02-24T17:12:21.696Z,2.50
2023-02-24T17:14:49.023Z,2.50
2023-02-24T17:17:18.428Z,2.50
2023-02-24T17:19:45.387Z,2.40
2023-02-24T17:22:12.236Z,2.50
2023-02-24T17:24:39.134Z,2.50
2023-02-24T17:27:07.868Z,2.60
2023-02-24T17:29:34.752Z,2.60
2023-02-24T17:32:01.915Z,2.50
2023-02-24T17:34:28.888Z,2.50
2023-02-24T17:36:55.799Z,2.50
2023-02-24T17:39:22.823Z,2.50
2023-02-24T17:41:49.733Z,2.50
2023-02-24T17:44:16.670Z,2.50
2023-02-24T17:46:43.717Z,2.50
2023-02-24T17:49:10.633Z,2.50
2023-02-24T17:51:37.566Z,2.50
2023-02-24T17:54:04.566Z,2.50
2023-02-24T17:56:31.488Z,2.50
2023-02-24T17:59:01.073Z,2.50
2023-02-24T18:01:28.475Z,2.50
2023-02-24T18:03:57.535Z,2.50
2023-02-24T18:06:25.387Z,2.40
2023-02-24T18:08:52.351Z,2.50
2023-02-24T18:11:20.341Z,2.40
2023-02-24T18:13:50.889Z,2.40
2023-02-24T18:16:18.001Z,2.40
2023-02-24T18:18:45.039Z,2.40
2023-02-24T18:21:12.124Z,2.40
2023-02-24T18:23:40.595Z,2.40
2023-02-24T18:26:09.637Z,2.40
2023-02-24T18:28:36.906Z,2.40
2023-02-24T18:31:16.164Z,2.30
2023-02-24T18:33:43.569Z,2.30
2023-02-24T18:36:11.420Z,2.30
2023-02-24T18:38:38.336Z,2.30
2023-02-24T18:41:08.167Z,2.30
2023-02-24T18:43:35.840Z,2.30
2023-02-24T18:46:05.967Z,2.20
2023-02-24T18:48:34.620Z,2.20
2023-02-24T18:51:01.860Z,2.20
2023-02-24T18:53:31.662Z,2.20
2023-02-24T18:56:01.064Z,2.20
2023-02-24T18:58:31.294Z,2.10
2023-02-24T19:00:58.227Z,2.20
2023-02-24T19:03:25.492Z,2.10
2023-02-24T19:05:52.517Z,2.20
2023-02-24T19:08:19.449Z,2.20
2023-02-24T19:10:46.496Z,2.20
2023-02-24T19:13:13.466Z,2.30
2023-02-24T19:15:40.620Z,2.30
2023-02-24T19:18:07.601Z,2.30
2023-02-24T19:20:34.545Z,2.30
2023-02-24T19:23:01.616Z,2.30
2023-02-24T19:25:28.504Z,2.30
2023-02-24T19:27:55.419Z,2.30
2023-02-24T19:30:22.287Z,2.30
2023-02-24T19:32:49.686Z,2.30
2023-02-24T19:35:16.876Z,2.30
2023-02-24T19:37:43.861Z,2.30
2023-02-24T19:40:11.486Z,2.30
2023-02-24T19:42:38.632Z,2.30
2023-02-24T19:45:06.127Z,2.30
2023-02-24T19:47:33.088Z,2.30
2023-02-24T19:49:59.991Z,2.20
2023-02-24T19:52:26.957Z,2.30
2023-02-24T19:54:54.401Z,2.30
2023-02-24T19:57:21.308Z,2.20
2023-02-24T19:59:51.918Z,2.20
2023-02-24T20:02:19.142Z,2.30
2023-02-24T20:04:46.220Z,2.30
2023-02-24T20:07:13.157Z,2.30
2023-02-24T20:09:42.819Z,2.30
2023-02-24T20:12:10.280Z,2.30
2023-02-24T20:14:37.195Z,2.30
2023-02-24T20:17:04.348Z,2.30
2023-02-24T20:19:33.611Z,2.40
2023-02-24T20:22:01.068Z,2.30
2023-02-24T20:24:27.953Z,2.40
2023-02-24T20:26:54.876Z,2.40
2023-02-24T20:29:22.067Z,2.40
2023-02-24T20:31:49.797Z,2.50
2023-02-24T20:34:17.051Z,2.50
2023-02-24T20:36:44.448Z,2.40
2023-02-24T20:39:14.767Z,2.40
2023-02-24T20:41:41.857Z,2.40
2023-02-24T20:44:09.288Z,2.40
2023-02-24T20:46:36.364Z,2.40
2023-02-24T20:49:08.947Z,2.50
2023-02-24T20:51:37.507Z,2.50
2023-02-24T20:54:06.146Z,2.50
2023-02-24T20:56:36.709Z,2.50
2023-02-24T20:59:18.589Z,2.50
2023-02-24T21:01:47.728Z,2.50
2023-02-24T21:04:18.744Z,2.50
2023-02-24T21:06:48.050Z,2.50
2023-02-24T21:09:15.747Z,2.50
2023-02-24T21:11:42.747Z,2.50
2023-02-24T21:14:17.541Z,2.50
2023-02-24T21:16:46.324Z,2.50
2023-02-24T21:19:13.833Z,2.50
2023-02-24T21:21:40.766Z,2.50
2023-02-24T21:24:08.719Z,2.50
2023-02-24T21:26:35.625Z,2.50
2023-02-24T21:29:02.583Z,2.50
2023-02-24T21:31:29.609Z,2.50
2023-02-24T21:33:56.895Z,2.50
2023-02-24T21:36:26.240Z,2.50
2023-02-24T21:38:55.121Z,2.50
2023-02-24T21:41:23.793Z,2.50
2023-02-24T21:43:55.277Z,2.50
2023-02-24T21:46:24.590Z,2.50
2023-02-24T21:48:56.305Z,2.50
2023-02-24T21:51:24.973Z,2.60
2023-02-24T21:53:55.052Z,2.50
2023-02-24T21:56:24.962Z,2.60
2023-02-24T21:58:56.214Z,2.60
2023-02-24T22:01:54.574Z,2.60
2023-02-24T22:04:22.094Z,2.60
2023-02-24T22:06:49.063Z,2.60
2023-02-24T22:09:19.950Z,2.60
2023-02-24T22:11:48.673Z,2.50
2023-02-24T22:14:16.133Z,2.60
2023-02-24T22:16:43.929Z,2.60
2023-02-24T22:19:11.647Z,2.60
2023-02-24T22:21:42.567Z,2.60
2023-02-24T22:24:12.191Z,2.60
2023-02-24T22:26:40.223Z,2.60
2023-02-24T22:29:07.724Z,2.60
2023-02-24T22:31:36.829Z,2.70
2023-02-24T22:34:04.679Z,2.60
2023-02-24T22:36:34.172Z,2.60
2023-02-24T22:39:02.026Z,2.60
2023-02-24T22:41:31.526Z,2.60
2023-02-24T22:43:59.320Z,2.60
2023-02-24T22:46:35.702Z,2.60
2023-02-24T22:49:02.951Z,2.60
2023-02-24T22:51:29.967Z,2.50
2023-02-24T22:53:57.017Z,2.60
2023-02-24T22:56:26.604Z,2.60
2023-02-24T22:58:53.569Z,2.50
2023-02-24T23:01:25.240Z,2.60
2023-02-24T23:03:52.782Z,2.60
2023-02-24T23:06:23.382Z,2.60
2023-02-24T23:08:51.847Z,2.50
2023-02-24T23:11:25.096Z,2.50
2023-02-24T23:13:52.181Z,2.60
2023-02-24T23:16:22.313Z,2.50
2023-02-24T23:18:53.980Z,2.50
2023-02-24T23:21:26.576Z,2.50
2023-02-24T23:23:56.985Z,2.50
2023-02-24T23:26:40.594Z,2.50
2023-02-24T23:29:08.516Z,2.50
2023-02-24T23:31:35.839Z,2.50
2023-02-24T23:34:07.145Z,2.50
2023-02-24T23:36:36.092Z,2.50
2023-02-24T23:39:04.428Z,2.50
2023-02-24T23:41:31.802Z,2.60
2023-02-24T23:43:59.042Z,2.50
2023-02-24T23:46:26.026Z,2.60
2023-02-24T23:48:53.952Z,2.60
2023-02-24T23:51:21.302Z,2.60
2023-02-24T23:53:48.528Z,2.50
2023-02-24T23:56:16.869Z,2.50
2023-02-24T23:58:43.870Z,2.60
